Marble, Pennsylvania
Current Conditions -  °F | °C
As of 12:55 AM on Wednesday 22 Oct 2014 (Local Time) from KFKL Reporting Station
Overcast Overcast  
Wind Chill: 44°   Ceiling: 800
Heat Index: 46°   Visibility: 10mi
Dew Point: 41°   Wind: 5mph
Humidity: 81%   Direction: 10°N
Pressure: 30.05"   Gusts: NA
Location:  41.34°N, 79.44°W
Report Text: KFKL 220455Z 01004KT 10SM OVC008 08/05 A3005 RMK AO1
Loading
Personal Weather Stations






























Interactive Weather Map
Tropical Storm Tracking
New forecast layout! Learn more

10-Day Weather Forecast

Advertisements
Track Severe Weather on mobile